sensor_id;sensor_type;location;lat;lon;timestamp;pressure;altitude;pressure_sealevel;temperature;humidity
51053;BME280;37093;37.716;-122.060;2023-05-12T00:02:24;100049.06;;;21.16;37.07
51053;BME280;37093;37.716;-122.060;2023-05-12T00:04:53;100050.35;;;20.62;38.28
51053;BME280;37093;37.716;-122.060;2023-05-12T00:07:21;100045.90;;;20.16;39.05
51053;BME280;37093;37.716;-122.060;2023-05-12T00:09:50;100039.99;;;20.77;38.96
51053;BME280;37093;37.716;-122.060;2023-05-12T00:12:18;100038.77;;;21.12;37.25
51053;BME280;37093;37.716;-122.060;2023-05-12T00:14:46;100039.54;;;20.97;37.43
51053;BME280;37093;37.716;-122.060;2023-05-12T00:17:15;100039.67;;;20.94;38.26
51053;BME280;37093;37.716;-122.060;2023-05-12T00:19:43;100041.98;;;20.89;37.62
51053;BME280;37093;37.716;-122.060;2023-05-12T00:22:11;100036.16;;;20.87;38.00
51053;BME280;37093;37.716;-122.060;2023-05-12T00:24:40;100035.96;;;20.54;38.80
51053;BME280;37093;37.716;-122.060;2023-05-12T00:27:08;100032.80;;;20.41;39.00
51053;BME280;37093;37.716;-122.060;2023-05-12T00:29:36;100030.95;;;19.79;39.74
51053;BME280;37093;37.716;-122.060;2023-05-12T00:32:04;100031.56;;;19.70;39.60
51053;BME280;37093;37.716;-122.060;2023-05-12T00:34:32;100029.62;;;20.08;39.40
51053;BME280;37093;37.716;-122.060;2023-05-12T00:37:01;100033.37;;;20.87;38.81
51053;BME280;37093;37.716;-122.060;2023-05-12T00:39:29;100035.72;;;20.15;39.38
51053;BME280;37093;37.716;-122.060;2023-05-12T00:41:59;100032.15;;;20.27;39.02
51053;BME280;37093;37.716;-122.060;2023-05-12T00:44:27;100034.37;;;20.13;39.20
51053;BME280;37093;37.716;-122.060;2023-05-12T00:46:56;100033.20;;;20.25;39.31
51053;BME280;37093;37.716;-122.060;2023-05-12T00:49:25;100033.71;;;20.35;38.93
51053;BME280;37093;37.716;-122.060;2023-05-12T00:51:56;100030.72;;;20.67;38.36
51053;BME280;37093;37.716;-122.060;2023-05-12T00:54:25;100031.47;;;20.53;38.83
51053;BME280;37093;37.716;-122.060;2023-05-12T00:56:53;100030.67;;;20.25;39.13
51053;BME280;37093;37.716;-122.060;2023-05-12T00:59:22;100029.28;;;20.09;40.78
51053;BME280;37093;37.716;-122.060;2023-05-12T01:01:50;100029.27;;;19.40;41.17
51053;BME280;37093;37.716;-122.060;2023-05-12T01:04:19;100031.02;;;19.50;41.44
51053;BME280;37093;37.716;-122.060;2023-05-12T01:06:51;100040.68;;;19.02;42.57
51053;BME280;37093;37.716;-122.060;2023-05-12T01:09:21;100030.00;;;19.90;40.76
51053;BME280;37093;37.716;-122.060;2023-05-12T01:11:50;100035.94;;;18.78;43.21
51053;BME280;37093;37.716;-122.060;2023-05-12T01:14:18;100034.18;;;19.75;42.16
51053;BME280;37093;37.716;-122.060;2023-05-12T01:16:51;100033.58;;;19.86;41.32
51053;BME280;37093;37.716;-122.060;2023-05-12T01:19:33;100034.79;;;20.09;40.42
51053;BME280;37093;37.716;-122.060;2023-05-12T01:22:06;100035.56;;;19.79;40.85
51053;BME280;37093;37.716;-122.060;2023-05-12T01:24:41;100038.37;;;19.27;42.36
51053;BME280;37093;37.716;-122.060;2023-05-12T01:27:13;100034.10;;;19.58;41.28
51053;BME280;37093;37.716;-122.060;2023-05-12T01:29:42;100042.66;;;19.46;41.89
51053;BME280;37093;37.716;-122.060;2023-05-12T01:32:12;100035.20;;;19.88;41.18
51053;BME280;37093;37.716;-122.060;2023-05-12T01:34:41;100037.04;;;19.19;42.43
51053;BME280;37093;37.716;-122.060;2023-05-12T01:37:10;100039.12;;;18.55;43.19
51053;BME280;37093;37.716;-122.060;2023-05-12T01:39:38;100041.42;;;18.87;42.69
51053;BME280;37093;37.716;-122.060;2023-05-12T01:42:07;100046.76;;;18.79;42.00
51053;BME280;37093;37.716;-122.060;2023-05-12T01:44:35;100046.34;;;19.38;41.82
51053;BME280;37093;37.716;-122.060;2023-05-12T01:47:03;100050.15;;;19.33;41.21
51053;BME280;37093;37.716;-122.060;2023-05-12T01:49:31;100041.24;;;18.92;42.46
51053;BME280;37093;37.716;-122.060;2023-05-12T01:52:00;100044.07;;;19.36;41.94
51053;BME280;37093;37.716;-122.060;2023-05-12T01:54:28;100044.49;;;19.19;41.60
51053;BME280;37093;37.716;-122.060;2023-05-12T01:56:57;100045.44;;;19.01;42.27
51053;BME280;37093;37.716;-122.060;2023-05-12T01:59:25;100046.46;;;17.80;43.98
51053;BME280;37093;37.716;-122.060;2023-05-12T02:01:54;100042.17;;;17.51;44.73
51053;BME280;37093;37.716;-122.060;2023-05-12T02:04:22;100041.07;;;17.98;44.38
51053;BME280;37093;37.716;-122.060;2023-05-12T02:06:51;100046.06;;;17.74;44.06
51053;BME280;37093;37.716;-122.060;2023-05-12T02:09:19;100047.45;;;18.46;43.36
51053;BME280;37093;37.716;-122.060;2023-05-12T02:11:47;100048.07;;;18.52;42.49
51053;BME280;37093;37.716;-122.060;2023-05-12T02:14:16;100049.70;;;18.46;42.42
51053;BME280;37093;37.716;-122.060;2023-05-12T02:16:46;100051.01;;;18.79;42.55
51053;BME280;37093;37.716;-122.060;2023-05-12T02:19:14;100048.41;;;17.51;44.31
51053;BME280;37093;37.716;-122.060;2023-05-12T02:21:43;100045.89;;;17.98;43.56
51053;BME280;37093;37.716;-122.060;2023-05-12T02:24:11;100053.91;;;17.67;44.31
51053;BME280;37093;37.716;-122.060;2023-05-12T02:26:39;100055.88;;;18.44;43.21
51053;BME280;37093;37.716;-122.060;2023-05-12T02:29:08;100059.06;;;18.35;43.03
51053;BME280;37093;37.716;-122.060;2023-05-12T02:31:36;100062.72;;;18.27;42.88
51053;BME280;37093;37.716;-122.060;2023-05-12T02:34:05;100061.66;;;18.71;42.50
51053;BME280;37093;37.716;-122.060;2023-05-12T02:36:33;100061.39;;;18.53;43.18
51053;BME280;37093;37.716;-122.060;2023-05-12T02:39:02;100063.20;;;17.94;44.30
51053;BME280;37093;37.716;-122.060;2023-05-12T02:41:30;100060.93;;;18.30;43.72
51053;BME280;37093;37.716;-122.060;2023-05-12T02:43:59;100064.73;;;18.87;42.67
51053;BME280;37093;37.716;-122.060;2023-05-12T02:46:27;100061.72;;;18.68;42.97
51053;BME280;37093;37.716;-122.060;2023-05-12T02:48:56;100062.07;;;18.94;41.78
51053;BME280;37093;37.716;-122.060;2023-05-12T02:51:25;100065.59;;;18.69;41.43
51053;BME280;37093;37.716;-122.060;2023-05-12T02:53:54;100065.55;;;18.82;41.51
51053;BME280;37093;37.716;-122.060;2023-05-12T02:56:22;100066.98;;;19.05;41.15
51053;BME280;37093;37.716;-122.060;2023-05-12T02:58:50;100065.97;;;19.35;41.22
51053;BME280;37093;37.716;-122.060;2023-05-12T03:01:19;100065.35;;;18.92;41.63
51053;BME280;37093;37.716;-122.060;2023-05-12T03:03:47;100066.81;;;18.90;41.40
51053;BME280;37093;37.716;-122.060;2023-05-12T03:06:15;100069.86;;;18.59;41.86
51053;BME280;37093;37.716;-122.060;2023-05-12T03:08:44;100072.42;;;18.82;41.67
51053;BME280;37093;37.716;-122.060;2023-05-12T03:11:13;100070.63;;;18.66;42.34
51053;BME280;37093;37.716;-122.060;2023-05-12T03:13:41;100073.06;;;18.57;42.07
51053;BME280;37093;37.716;-122.060;2023-05-12T03:16:09;100069.65;;;18.29;42.40
51053;BME280;37093;37.716;-122.060;2023-05-12T03:18:38;100072.54;;;18.53;42.31
51053;BME280;37093;37.716;-122.060;2023-05-12T03:21:06;100071.74;;;17.89;43.56
51053;BME280;37093;37.716;-122.060;2023-05-12T03:23:35;100073.58;;;17.74;43.69
51053;BME280;37093;37.716;-122.060;2023-05-12T03:26:04;100072.35;;;18.11;43.43
51053;BME280;37093;37.716;-122.060;2023-05-12T03:28:32;100073.06;;;18.17;42.88
51053;BME280;37093;37.716;-122.060;2023-05-12T03:31:01;100074.54;;;18.17;42.64
51053;BME280;37093;37.716;-122.060;2023-05-12T03:33:29;100078.88;;;18.20;43.14
51053;BME280;37093;37.716;-122.060;2023-05-12T03:35:57;100080.26;;;18.05;42.33
51053;BME280;37093;37.716;-122.060;2023-05-12T03:38:26;100081.66;;;18.05;42.61
51053;BME280;37093;37.716;-122.060;2023-05-12T03:41:03;100082.08;;;18.25;42.78
51053;BME280;37093;37.716;-122.060;2023-05-12T03:43:32;100080.74;;;18.58;42.19
51053;BME280;37093;37.716;-122.060;2023-05-12T03:46:01;100083.98;;;18.46;42.66
51053;BME280;37093;37.716;-122.060;2023-05-12T03:48:29;100084.74;;;18.32;41.95
51053;BME280;37093;37.716;-122.060;2023-05-12T03:50:59;100090.08;;;18.05;42.38
51053;BME280;37093;37.716;-122.060;2023-05-12T03:53:27;100086.03;;;18.53;42.02
51053;BME280;37093;37.716;-122.060;2023-05-12T03:55:55;100085.23;;;18.53;41.79
51053;BME280;37093;37.716;-122.060;2023-05-12T03:58:24;100085.21;;;18.36;41.88
51053;BME280;37093;37.716;-122.060;2023-05-12T04:00:56;100088.76;;;18.54;41.42
51053;BME280;37093;37.716;-122.060;2023-05-12T04:03:24;100090.53;;;18.70;41.29
51053;BME280;37093;37.716;-122.060;2023-05-12T04:05:57;100092.13;;;18.87;41.48
51053;BME280;37093;37.716;-122.060;2023-05-12T04:08:26;100091.28;;;18.83;41.34
51053;BME280;37093;37.716;-122.060;2023-05-12T04:10:55;100089.48;;;18.70;41.86
51053;BME280;37093;37.716;-122.060;2023-05-12T04:13:25;100092.73;;;18.68;41.81
51053;BME280;37093;37.716;-122.060;2023-05-12T04:15:56;100094.56;;;18.39;41.58
51053;BME280;37093;37.716;-122.060;2023-05-12T04:18:25;100096.93;;;18.54;41.18
51053;BME280;37093;37.716;-122.060;2023-05-12T04:20:54;100097.36;;;18.83;41.21
51053;BME280;37093;37.716;-122.060;2023-05-12T04:23:23;100099.53;;;19.12;41.06
51053;BME280;37093;37.716;-122.060;2023-05-12T04:25:51;100096.55;;;18.58;42.37
51053;BME280;37093;37.716;-122.060;2023-05-12T04:28:20;100098.33;;;18.66;42.04
51053;BME280;37093;37.716;-122.060;2023-05-12T04:30:48;100100.64;;;18.34;42.03
51053;BME280;37093;37.716;-122.060;2023-05-12T04:33:17;100100.17;;;18.64;42.12
51053;BME280;37093;37.716;-122.060;2023-05-12T04:35:45;100103.16;;;17.90;42.55
51053;BME280;37093;37.716;-122.060;2023-05-12T04:38:13;100104.57;;;18.61;42.15
51053;BME280;37093;37.716;-122.060;2023-05-12T04:40:41;100108.98;;;17.96;43.32
51053;BME280;37093;37.716;-122.060;2023-05-12T04:43:09;100104.20;;;17.96;43.33
51053;BME280;37093;37.716;-122.060;2023-05-12T04:45:38;100104.94;;;18.31;42.83
51053;BME280;37093;37.716;-122.060;2023-05-12T04:48:07;100098.93;;;18.26;43.03
51053;BME280;37093;37.716;-122.060;2023-05-12T04:50:35;100099.16;;;18.15;43.20
51053;BME280;37093;37.716;-122.060;2023-05-12T04:53:04;100096.47;;;18.21;43.03
51053;BME280;37093;37.716;-122.060;2023-05-12T04:55:32;100094.88;;;18.28;42.94
51053;BME280;37093;37.716;-122.060;2023-05-12T04:58:00;100094.90;;;18.21;43.07
51053;BME280;37093;37.716;-122.060;2023-05-12T05:00:28;100094.44;;;18.28;42.70
51053;BME280;37093;37.716;-122.060;2023-05-12T05:02:57;100093.23;;;18.20;43.19
51053;BME280;37093;37.716;-122.060;2023-05-12T05:05:25;100095.13;;;18.04;43.09
51053;BME280;37093;37.716;-122.060;2023-05-12T05:07:54;100094.89;;;18.17;42.91
51053;BME280;37093;37.716;-122.060;2023-05-12T05:10:23;100094.76;;;18.10;42.83
51053;BME280;37093;37.716;-122.060;2023-05-12T05:12:51;100093.81;;;17.74;44.08
51053;BME280;37093;37.716;-122.060;2023-05-12T05:15:19;100095.00;;;17.88;43.83
51053;BME280;37093;37.716;-122.060;2023-05-12T05:17:48;100092.42;;;18.04;43.44
51053;BME280;37093;37.716;-122.060;2023-05-12T05:20:17;100092.24;;;18.37;43.54
51053;BME280;37093;37.716;-122.060;2023-05-12T05:22:45;100094.93;;;18.31;43.55
51053;BME280;37093;37.716;-122.060;2023-05-12T05:25:14;100093.94;;;18.22;43.74
51053;BME280;37093;37.716;-122.060;2023-05-12T05:27:42;100094.51;;;17.93;44.00
51053;BME280;37093;37.716;-122.060;2023-05-12T05:30:11;100096.21;;;18.10;43.73
51053;BME280;37093;37.716;-122.060;2023-05-12T05:32:39;100088.66;;;18.14;44.65
51053;BME280;37093;37.716;-122.060;2023-05-12T05:35:07;100089.00;;;17.73;44.64
51053;BME280;37093;37.716;-122.060;2023-05-12T05:37:35;100089.30;;;17.65;45.02
51053;BME280;37093;37.716;-122.060;2023-05-12T05:40:05;100090.58;;;17.69;44.04
51053;BME280;37093;37.716;-122.060;2023-05-12T05:42:33;100086.91;;;17.71;45.50
51053;BME280;37093;37.716;-122.060;2023-05-12T05:45:01;100084.82;;;18.00;44.71
51053;BME280;37093;37.716;-122.060;2023-05-12T05:47:30;100084.53;;;18.00;44.77
51053;BME280;37093;37.716;-122.060;2023-05-12T05:49:58;100087.78;;;17.70;44.86
51053;BME280;37093;37.716;-122.060;2023-05-12T05:52:27;100090.20;;;17.62;45.42
51053;BME280;37093;37.716;-122.060;2023-05-12T05:54:56;100088.67;;;17.72;44.90
51053;BME280;37093;37.716;-122.060;2023-05-12T05:57:24;100089.59;;;17.79;44.81
51053;BME280;37093;37.716;-122.060;2023-05-12T05:59:53;100090.99;;;17.74;44.85
51053;BME280;37093;37.716;-122.060;2023-05-12T06:02:21;100094.75;;;17.57;45.42
51053;BME280;37093;37.716;-122.060;2023-05-12T06:04:49;100091.73;;;17.84;45.23
51053;BME280;37093;37.716;-122.060;2023-05-12T06:07:18;100088.92;;;17.51;45.91
51053;BME280;37093;37.716;-122.060;2023-05-12T06:09:46;100090.10;;;17.38;46.05
51053;BME280;37093;37.716;-122.060;2023-05-12T06:12:15;100084.63;;;17.49;45.36
51053;BME280;37093;37.716;-122.060;2023-05-12T06:14:43;100078.87;;;17.68;45.27
51053;BME280;37093;37.716;-122.060;2023-05-12T06:17:12;100081.82;;;17.44;45.77
51053;BME280;37093;37.716;-122.060;2023-05-12T06:19:40;100083.87;;;17.46;45.32
51053;BME280;37093;37.716;-122.060;2023-05-12T06:22:09;100079.91;;;17.78;45.46
51053;BME280;37093;37.716;-122.060;2023-05-12T06:24:37;100076.45;;;17.52;45.75
51053;BME280;37093;37.716;-122.060;2023-05-12T06:27:06;100076.38;;;16.98;45.71
51053;BME280;37093;37.716;-122.060;2023-05-12T06:29:34;100075.87;;;17.50;45.63
51053;BME280;37093;37.716;-122.060;2023-05-12T06:32:03;100065.20;;;17.53;44.79
51053;BME280;37093;37.716;-122.060;2023-05-12T06:34:31;100061.79;;;17.67;44.65
51053;BME280;37093;37.716;-122.060;2023-05-12T06:36:59;100067.61;;;17.27;45.09
51053;BME280;37093;37.716;-122.060;2023-05-12T06:39:28;100068.17;;;17.43;44.62
51053;BME280;37093;37.716;-122.060;2023-05-12T06:41:56;100068.54;;;17.38;45.36
51053;BME280;37093;37.716;-122.060;2023-05-12T06:44:25;100067.36;;;17.40;45.08
51053;BME280;37093;37.716;-122.060;2023-05-12T06:46:53;100067.88;;;17.52;45.70
51053;BME280;37093;37.716;-122.060;2023-05-12T06:49:23;100073.65;;;17.33;46.34
51053;BME280;37093;37.716;-122.060;2023-05-12T06:51:51;100071.58;;;17.28;45.58
51053;BME280;37093;37.716;-122.060;2023-05-12T06:54:20;100067.56;;;17.37;45.16
51053;BME280;37093;37.716;-122.060;2023-05-12T06:56:48;100066.75;;;17.20;45.98
51053;BME280;37093;37.716;-122.060;2023-05-12T06:59:17;100071.03;;;17.21;45.87
51053;BME280;37093;37.716;-122.060;2023-05-12T07:01:14;100072.37;;;15.96;47.00
51053;BME280;37093;37.716;-122.060;2023-05-12T07:03:43;100069.74;;;16.19;44.69
51053;BME280;37093;37.716;-122.060;2023-05-12T07:06:11;100069.30;;;18.07;42.48
51053;BME280;37093;37.716;-122.060;2023-05-12T07:08:39;100067.72;;;18.61;42.65
51053;BME280;37093;37.716;-122.060;2023-05-12T07:11:08;100064.77;;;17.79;43.96
51053;BME280;37093;37.716;-122.060;2023-05-12T07:13:37;100066.08;;;17.38;44.88
51053;BME280;37093;37.716;-122.060;2023-05-12T07:16:06;100068.89;;;16.84;45.23
51053;BME280;37093;37.716;-122.060;2023-05-12T07:18:34;100070.48;;;16.49;46.72
51053;BME280;37093;37.716;-122.060;2023-05-12T07:21:02;100072.65;;;16.67;47.37
51053;BME280;37093;37.716;-122.060;2023-05-12T07:23:31;100070.49;;;16.95;46.64
51053;BME280;37093;37.716;-122.060;2023-05-12T07:25:59;100069.93;;;16.74;47.19
51053;BME280;37093;37.716;-122.060;2023-05-12T07:28:28;100068.27;;;16.78;47.44
51053;BME280;37093;37.716;-122.060;2023-05-12T07:30:57;100065.77;;;16.48;47.55
51053;BME280;37093;37.716;-122.060;2023-05-12T07:33:25;100069.24;;;16.87;46.98
51053;BME280;37093;37.716;-122.060;2023-05-12T07:35:53;100071.66;;;16.74;46.61
51053;BME280;37093;37.716;-122.060;2023-05-12T07:38:22;100073.25;;;16.99;46.84
51053;BME280;37093;37.716;-122.060;2023-05-12T07:40:50;100075.40;;;16.87;47.11
51053;BME280;37093;37.716;-122.060;2023-05-12T07:43:19;100078.73;;;16.80;47.42
51053;BME280;37093;37.716;-122.060;2023-05-12T07:45:47;100080.08;;;16.72;47.06
51053;BME280;37093;37.716;-122.060;2023-05-12T07:48:16;100077.68;;;16.63;47.27
51053;BME280;37093;37.716;-122.060;2023-05-12T07:50:45;100075.58;;;16.30;47.23
51053;BME280;37093;37.716;-122.060;2023-05-12T07:53:13;100079.32;;;16.79;47.13
51053;BME280;37093;37.716;-122.060;2023-05-12T07:55:42;100079.73;;;16.43;48.07
51053;BME280;37093;37.716;-122.060;2023-05-12T07:58:10;100082.40;;;16.67;47.18
51053;BME280;37093;37.716;-122.060;2023-05-12T08:00:39;100084.51;;;16.63;47.19
51053;BME280;37093;37.716;-122.060;2023-05-12T08:03:08;100087.67;;;17.10;46.73
51053;BME280;37093;37.716;-122.060;2023-05-12T08:05:36;100084.43;;;16.56;46.86
51053;BME280;37093;37.716;-122.060;2023-05-12T08:08:05;100087.26;;;16.77;47.12
51053;BME280;37093;37.716;-122.060;2023-05-12T08:10:33;100083.80;;;16.68;46.90
51053;BME280;37093;37.716;-122.060;2023-05-12T08:13:02;100085.87;;;17.27;46.00
51053;BME280;37093;37.716;-122.060;2023-05-12T08:15:30;100086.09;;;16.98;45.89
51053;BME280;37093;37.716;-122.060;2023-05-12T08:17:59;100083.23;;;16.91;45.68
51053;BME280;37093;37.716;-122.060;2023-05-12T08:20:27;100084.38;;;16.80;45.74
51053;BME280;37093;37.716;-122.060;2023-05-12T08:22:56;100084.76;;;17.47;45.39
51053;BME280;37093;37.716;-122.060;2023-05-12T08:25:25;100083.30;;;17.40;45.82
51053;BME280;37093;37.716;-122.060;2023-05-12T08:27:53;100082.33;;;17.17;45.65
51053;BME280;37093;37.716;-122.060;2023-05-12T08:30:21;100084.36;;;17.17;45.70
51053;BME280;37093;37.716;-122.060;2023-05-12T08:32:50;100083.22;;;17.46;45.39
51053;BME280;37093;37.716;-122.060;2023-05-12T08:35:19;100082.76;;;17.09;45.22
51053;BME280;37093;37.716;-122.060;2023-05-12T08:37:47;100078.60;;;17.51;45.04
51053;BME280;37093;37.716;-122.060;2023-05-12T08:40:20;100078.28;;;17.26;44.68
51053;BME280;37093;37.716;-122.060;2023-05-12T08:42:54;100072.74;;;17.61;44.79
51053;BME280;37093;37.716;-122.060;2023-05-12T08:45:28;100075.19;;;17.48;45.45
51053;BME280;37093;37.716;-122.060;2023-05-12T08:47:57;100069.86;;;17.22;45.39
51053;BME280;37093;37.716;-122.060;2023-05-12T08:50:26;100065.69;;;17.21;45.25
51053;BME280;37093;37.716;-122.060;2023-05-12T08:52:55;100061.65;;;17.35;45.21
51053;BME280;37093;37.716;-122.060;2023-05-12T08:55:24;100062.90;;;17.33;45.28
51053;BME280;37093;37.716;-122.060;2023-05-12T08:57:53;100062.36;;;17.61;45.13
51053;BME280;37093;37.716;-122.060;2023-05-12T09:00:23;100063.08;;;17.19;45.30
51053;BME280;37093;37.716;-122.060;2023-05-12T09:02:52;100062.84;;;17.28;45.20
51053;BME280;37093;37.716;-122.060;2023-05-12T09:05:21;100062.53;;;17.38;45.66
51053;BME280;37093;37.716;-122.060;2023-05-12T09:07:52;100058.60;;;17.39;45.14
51053;BME280;37093;37.716;-122.060;2023-05-12T09:10:21;100060.71;;;17.01;45.64
51053;BME280;37093;37.716;-122.060;2023-05-12T09:12:53;100062.26;;;17.29;45.87
51053;BME280;37093;37.716;-122.060;2023-05-12T09:15:26;100064.40;;;16.85;45.99
51053;BME280;37093;37.716;-122.060;2023-05-12T09:17:55;100062.72;;;17.02;46.97
51053;BME280;37093;37.716;-122.060;2023-05-12T09:20:25;100061.02;;;16.90;47.02
51053;BME280;37093;37.716;-122.060;2023-05-12T09:22:54;100057.57;;;16.64;46.97
51053;BME280;37093;37.716;-122.060;2023-05-12T09:25:23;100055.22;;;16.22;48.09
51053;BME280;37093;37.716;-122.060;2023-05-12T09:27:54;100060.39;;;16.61;47.48
51053;BME280;37093;37.716;-122.060;2023-05-12T09:30:31;100059.31;;;16.09;48.16
51053;BME280;37093;37.716;-122.060;2023-05-12T09:33:06;100057.65;;;16.72;46.75
51053;BME280;37093;37.716;-122.060;2023-05-12T09:35:39;100061.42;;;16.79;47.52
51053;BME280;37093;37.716;-122.060;2023-05-12T09:38:08;100053.83;;;16.46;47.14
51053;BME280;37093;37.716;-122.060;2023-05-12T09:40:37;100054.71;;;15.81;47.96
51053;BME280;37093;37.716;-122.060;2023-05-12T09:43:06;100053.07;;;16.15;48.54
51053;BME280;37093;37.716;-122.060;2023-05-12T09:45:35;100052.23;;;16.18;48.28
51053;BME280;37093;37.716;-122.060;2023-05-12T09:48:12;100055.62;;;15.79;48.47
51053;BME280;37093;37.716;-122.060;2023-05-12T09:50:44;100050.82;;;15.95;48.93
51053;BME280;37093;37.716;-122.060;2023-05-12T09:53:14;100048.61;;;15.84;49.30
51053;BME280;37093;37.716;-122.060;2023-05-12T09:55:43;100049.41;;;15.62;49.90
51053;BME280;37093;37.716;-122.060;2023-05-12T09:58:13;100049.92;;;15.82;49.81
51053;BME280;37093;37.716;-122.060;2023-05-12T10:00:43;100050.45;;;15.75;50.98
51053;BME280;37093;37.716;-122.060;2023-05-12T10:03:14;100046.67;;;15.83;49.32
51053;BME280;37093;37.716;-122.060;2023-05-12T10:05:47;100045.90;;;16.17;48.67
51053;BME280;37093;37.716;-122.060;2023-05-12T10:08:19;100042.61;;;15.86;48.03
51053;BME280;37093;37.716;-122.060;2023-05-12T10:10:50;100043.54;;;16.24;47.39
51053;BME280;37093;37.716;-122.060;2023-05-12T10:13:21;100043.85;;;16.32;47.92
51053;BME280;37093;37.716;-122.060;2023-05-12T10:15:49;100046.05;;;15.37;49.84
51053;BME280;37093;37.716;-122.060;2023-05-12T10:18:19;100050.46;;;14.42;53.09
51053;BME280;37093;37.716;-122.060;2023-05-12T10:20:48;100047.02;;;15.26;51.15
51053;BME280;37093;37.716;-122.060;2023-05-12T10:23:19;100048.60;;;15.37;51.05
51053;BME280;37093;37.716;-122.060;2023-05-12T10:25:49;100048.38;;;15.93;49.28
51053;BME280;37093;37.716;-122.060;2023-05-12T10:28:17;100046.01;;;15.90;48.56
51053;BME280;37093;37.716;-122.060;2023-05-12T10:30:46;100044.28;;;15.89;48.98
51053;BME280;37093;37.716;-122.060;2023-05-12T10:33:15;100043.60;;;15.69;48.90
51053;BME280;37093;37.716;-122.060;2023-05-12T10:35:43;100048.48;;;15.94;49.11
51053;BME280;37093;37.716;-122.060;2023-05-12T10:38:14;100056.13;;;15.42;50.79
51053;BME280;37093;37.716;-122.060;2023-05-12T10:40:52;100052.38;;;15.19;50.76
51053;BME280;37093;37.716;-122.060;2023-05-12T10:43:22;100047.10;;;15.57;50.21
51053;BME280;37093;37.716;-122.060;2023-05-12T10:46:07;100044.76;;;15.11;51.05
51053;BME280;37093;37.716;-122.060;2023-05-12T10:48:49;100043.67;;;15.60;50.04
51053;BME280;37093;37.716;-122.060;2023-05-12T10:51:19;100043.02;;;15.29;50.57
51053;BME280;37093;37.716;-122.060;2023-05-12T10:53:52;100043.73;;;15.70;50.60
51053;BME280;37093;37.716;-122.060;2023-05-12T10:56:23;100053.15;;;15.18;50.96
51053;BME280;37093;37.716;-122.060;2023-05-12T10:59:11;100052.57;;;15.57;50.47
51053;BME280;37093;37.716;-122.060;2023-05-12T11:01:40;100050.97;;;15.72;50.06
51053;BME280;37093;37.716;-122.060;2023-05-12T11:04:12;100053.79;;;14.79;52.50
51053;BME280;37093;37.716;-122.060;2023-05-12T11:06:40;100057.52;;;15.26;52.04
51053;BME280;37093;37.716;-122.060;2023-05-12T11:09:09;100050.89;;;15.60;50.15
51053;BME280;37093;37.716;-122.060;2023-05-12T11:11:37;100055.08;;;15.51;50.85
51053;BME280;37093;37.716;-122.060;2023-05-12T11:14:06;100057.99;;;15.34;50.84
51053;BME280;37093;37.716;-122.060;2023-05-12T11:16:42;100055.63;;;15.92;49.99
51053;BME280;37093;37.716;-122.060;2023-05-12T11:19:10;100053.53;;;16.18;49.42
51053;BME280;37093;37.716;-122.060;2023-05-12T11:21:38;100050.52;;;15.85;48.89
51053;BME280;37093;37.716;-122.060;2023-05-12T11:24:07;100047.68;;;16.03;48.96
51053;BME280;37093;37.716;-122.060;2023-05-12T11:26:35;100049.40;;;15.70;50.16
51053;BME280;37093;37.716;-122.060;2023-05-12T11:29:03;100052.66;;;16.17;48.80
51053;BME280;37093;37.716;-122.060;2023-05-12T11:31:32;100048.64;;;16.53;48.26
51053;BME280;37093;37.716;-122.060;2023-05-12T11:34:05;100048.22;;;15.69;49.31
51053;BME280;37093;37.716;-122.060;2023-05-12T11:36:37;100047.28;;;16.27;48.77
51053;BME280;37093;37.716;-122.060;2023-05-12T11:39:10;100047.96;;;15.51;49.48
51053;BME280;37093;37.716;-122.060;2023-05-12T11:41:39;100044.50;;;16.10;49.02
51053;BME280;37093;37.716;-122.060;2023-05-12T11:44:16;100049.01;;;15.87;48.91
51053;BME280;37093;37.716;-122.060;2023-05-12T11:47:02;100050.36;;;15.55;49.37
51053;BME280;37093;37.716;-122.060;2023-05-12T11:49:31;100047.54;;;15.90;48.96
51053;BME280;37093;37.716;-122.060;2023-05-12T11:52:00;100052.62;;;16.08;47.89
51053;BME280;37093;37.716;-122.060;2023-05-12T11:54:29;100058.46;;;15.59;49.13
51053;BME280;37093;37.716;-122.060;2023-05-12T11:56:57;100054.39;;;15.68;49.65
51053;BME280;37093;37.716;-122.060;2023-05-12T11:59:27;100056.23;;;16.04;49.29
51053;BME280;37093;37.716;-122.060;2023-05-12T12:01:56;100057.09;;;15.85;48.57
51053;BME280;37093;37.716;-122.060;2023-05-12T12:04:33;100057.44;;;16.05;48.40
51053;BME280;37093;37.716;-122.060;2023-05-12T12:07:02;100058.00;;;15.98;48.03
51053;BME280;37093;37.716;-122.060;2023-05-12T12:09:31;100058.31;;;16.41;48.25
51053;BME280;37093;37.716;-122.060;2023-05-12T12:12:00;100053.77;;;16.29;48.04
51053;BME280;37093;37.716;-122.060;2023-05-12T12:14:30;100052.71;;;16.08;48.71
51053;BME280;37093;37.716;-122.060;2023-05-12T12:16:59;100053.56;;;15.73;49.99
51053;BME280;37093;37.716;-122.060;2023-05-12T12:19:28;100053.59;;;16.39;48.54
51053;BME280;37093;37.716;-122.060;2023-05-12T12:21:57;100055.29;;;16.06;48.56
51053;BME280;37093;37.716;-122.060;2023-05-12T12:24:25;100059.76;;;15.81;48.92
51053;BME280;37093;37.716;-122.060;2023-05-12T12:26:53;100064.45;;;16.00;48.38
51053;BME280;37093;37.716;-122.060;2023-05-12T12:29:22;100068.02;;;16.41;47.88
51053;BME280;37093;37.716;-122.060;2023-05-12T12:31:50;100066.27;;;15.72;49.22